createdAt,value
2023-03-06T00:01:54.509Z,21.83
2023-03-06T00:06:56.311Z,29.15
2023-03-06T00:11:58.066Z,34.20
2023-03-06T00:16:59.800Z,24.63
2023-03-06T00:22:03.194Z,23.80
2023-03-06T00:27:05.185Z,25.25
2023-03-06T00:32:07.529Z,24.88
2023-03-06T00:37:09.350Z,24.08
2023-03-06T00:42:11.122Z,22.35
2023-03-06T00:47:13.566Z,24.38
2023-03-06T00:52:15.610Z,23.17
2023-03-06T00:57:17.470Z,25.10
2023-03-06T01:02:19.287Z,24.02
2023-03-06T01:07:21.503Z,19.38
2023-03-06T01:12:23.651Z,25.15
2023-03-06T01:17:31.710Z,24.73
2023-03-06T01:22:33.576Z,24.20
2023-03-06T01:27:35.808Z,25.00
2023-03-06T01:32:37.646Z,22.80
2023-03-06T01:37:39.945Z,22.92
2023-03-06T01:42:42.976Z,26.08
2023-03-06T01:47:45.192Z,25.33
2023-03-06T01:52:51.682Z,26.88
2023-03-06T01:57:57.869Z,25.52
2023-03-06T02:03:10.638Z,27.98
2023-03-06T02:08:16.104Z,25.35
2023-03-06T02:13:17.874Z,23.83
2023-03-06T02:18:19.673Z,26.98
2023-03-06T02:23:50.533Z,26.83
2023-03-06T02:28:52.274Z,23.05
2023-03-06T02:34:04.142Z,28.58
2023-03-06T02:39:06.338Z,24.88
2023-03-06T02:44:08.096Z,23.88
2023-03-06T02:49:10.181Z,22.60
2023-03-06T02:54:11.959Z,25.85
2023-03-06T02:59:13.694Z,26.73
2023-03-06T03:04:15.450Z,29.10
2023-03-06T03:09:17.487Z,28.67
2023-03-06T03:14:19.205Z,21.95
2023-03-06T03:19:20.977Z,28.48
2023-03-06T03:24:22.733Z,24.27
2023-03-06T03:29:24.988Z,23.80
2023-03-06T03:34:27.371Z,22.80
2023-03-06T03:39:29.431Z,20.67
2023-03-06T03:44:31.213Z,25.38
2023-03-06T03:49:33.182Z,23.90
2023-03-06T03:54:35.085Z,25.75
2023-03-06T03:59:36.874Z,23.40
2023-03-06T04:04:38.750Z,26.23
2023-03-06T04:09:40.513Z,26.73
2023-03-06T04:14:42.330Z,27.40
2023-03-06T04:19:44.073Z,24.33
2023-03-06T04:24:48.846Z,26.02
2023-03-06T04:29:50.670Z,29.02
2023-03-06T04:34:52.489Z,32.15
2023-03-06T04:39:54.725Z,23.85
2023-03-06T04:44:56.504Z,24.45
2023-03-06T04:49:58.214Z,24.05
2023-03-06T04:54:59.961Z,23.80
2023-03-06T05:00:02.109Z,24.17
2023-03-06T05:05:04.955Z,23.13
2023-03-06T05:10:07.641Z,24.00
2023-03-06T05:15:11.044Z,23.05
2023-03-06T05:20:13.902Z,23.10
2023-03-06T05:25:15.660Z,30.95
2023-03-06T05:30:17.564Z,20.90
2023-03-06T05:35:22.577Z,20.35
2023-03-06T05:40:24.408Z,25.90
2023-03-06T05:45:26.149Z,25.80
2023-03-06T05:50:28.012Z,25.77
2023-03-06T05:55:29.986Z,25.30
2023-03-06T06:00:31.741Z,27.17
2023-03-06T06:05:33.548Z,32.03
2023-03-06T06:10:35.309Z,25.33
2023-03-06T06:15:39.126Z,28.63
2023-03-06T06:20:40.910Z,28.60
2023-03-06T06:25:42.703Z,37.08
2023-03-06T06:30:44.432Z,39.40
2023-03-06T06:35:46.353Z,52.22
2023-03-06T06:41:19.098Z,42.60
2023-03-06T06:46:39.744Z,45.60
2023-03-06T06:51:35.588Z,45.58
2023-03-06T06:56:37.457Z,39.92
2023-03-06T07:01:39.162Z,36.50
2023-03-06T07:06:41.907Z,39.95
2023-03-06T07:11:43.746Z,36.40
2023-03-06T07:16:45.478Z,32.53
2023-03-06T07:21:47.594Z,30.42
2023-03-06T07:26:49.526Z,33.25
2023-03-06T07:31:52.664Z,26.02
2023-03-06T07:36:55.314Z,32.75
2023-03-06T07:41:58.606Z,26.65
2023-03-06T07:47:00.412Z,22.13
2023-03-06T07:52:02.411Z,21.17
2023-03-06T07:57:07.188Z,16.05
2023-03-06T08:02:11.702Z,15.50
2023-03-06T08:07:13.584Z,17.45
2023-03-06T08:12:16.652Z,16.90
2023-03-06T08:17:18.633Z,18.38
2023-03-06T08:22:20.788Z,18.88
2023-03-06T08:27:25.725Z,22.08
2023-03-06T08:32:28.305Z,15.48
2023-03-06T08:37:30.236Z,19.65
2023-03-06T08:42:32.724Z,17.50
2023-03-06T08:47:35.875Z,19.20
2023-03-06T08:52:37.582Z,20.23
2023-03-06T08:57:39.386Z,16.15
2023-03-06T09:02:41.272Z,16.27
2023-03-06T09:07:43.222Z,16.35
2023-03-06T09:12:51.350Z,23.77
2023-03-06T09:17:54.465Z,20.13
2023-03-06T09:22:56.475Z,19.70
2023-03-06T09:28:10.475Z,19.60
2023-03-06T09:33:13.353Z,18.23
2023-03-06T09:38:15.266Z,18.15
2023-03-06T09:43:30.790Z,23.90
2023-03-06T09:48:44.051Z,20.67
2023-03-06T09:54:04.045Z,21.83
2023-03-06T09:59:13.275Z,21.40
2023-03-06T10:04:26.932Z,21.65
2023-03-06T10:10:09.046Z,27.77
2023-03-06T10:15:19.333Z,27.85
2023-03-06T10:20:34.086Z,45.85
2023-03-06T10:25:55.068Z,31.20
2023-03-06T10:31:01.478Z,35.13
2023-03-06T10:36:04.641Z,25.75
2023-03-06T10:41:08.441Z,20.88
2023-03-06T10:46:26.878Z,27.23
2023-03-06T10:51:30.348Z,22.42
2023-03-06T10:56:41.687Z,22.15
2023-03-06T11:01:45.255Z,21.73
2023-03-06T11:12:23.296Z,19.48
2023-03-06T11:17:32.146Z,18.40
2023-03-06T11:22:35.252Z,16.42
2023-03-06T11:27:42.813Z,17.77
2023-03-06T11:33:33.369Z,19.45
2023-03-06T11:38:53.501Z,18.40
2023-03-06T11:44:26.619Z,15.57
2023-03-06T11:54:57.358Z,15.85
2023-03-06T12:00:02.523Z,16.98
2023-03-06T12:05:21.298Z,19.52
2023-03-06T12:10:38.630Z,16.65
2023-03-06T12:15:49.166Z,18.25
2023-03-06T12:21:03.434Z,19.40
2023-03-06T12:26:35.780Z,17.85
2023-03-06T12:32:17.008Z,13.83
2023-03-06T12:37:28.200Z,17.77
2023-03-06T12:42:42.650Z,18.10
2023-03-06T12:47:47.251Z,16.35
2023-03-06T12:52:49.638Z,16.55
2023-03-06T12:57:52.856Z,15.48
2023-03-06T13:03:00.137Z,15.27
2023-03-06T13:08:51.323Z,14.65
2023-03-06T13:13:53.482Z,14.07
2023-03-06T13:19:03.061Z,13.98
2023-03-06T13:24:06.243Z,13.10
2023-03-06T13:29:36.288Z,15.48
2023-03-06T13:34:47.310Z,15.82
2023-03-06T13:39:55.107Z,14.68
2023-03-06T13:45:07.156Z,16.65
2023-03-06T13:50:45.052Z,14.40
2023-03-06T13:56:21.882Z,17.98
2023-03-06T14:02:02.004Z,19.55
2023-03-06T14:07:23.861Z,16.77
2023-03-06T14:12:38.265Z,14.40
2023-03-06T14:17:55.592Z,15.13
2023-03-06T14:23:16.522Z,14.88
2023-03-06T14:28:33.440Z,15.98
2023-03-06T14:34:01.811Z,18.70
2023-03-06T14:39:32.641Z,16.20
2023-03-06T14:44:34.845Z,17.00
2023-03-06T14:49:36.822Z,11.65
2023-03-06T14:54:43.738Z,15.63
2023-03-06T14:59:53.137Z,12.90
2023-03-06T15:05:00.893Z,17.30
2023-03-06T15:10:05.021Z,14.73
2023-03-06T15:15:10.705Z,11.77
2023-03-06T15:20:43.705Z,16.55
2023-03-06T15:25:56.548Z,14.35
2023-03-06T15:31:23.019Z,16.55
2023-03-06T15:36:32.273Z,13.60
2023-03-06T15:41:38.874Z,18.77
2023-03-06T15:46:41.878Z,19.15
2023-03-06T15:51:43.908Z,17.70
2023-03-06T15:56:48.905Z,15.82
2023-03-06T16:01:51.670Z,18.08
2023-03-06T16:06:53.468Z,19.23
2023-03-06T16:11:55.260Z,23.20
2023-03-06T16:16:57.576Z,22.65
2023-03-06T16:21:59.911Z,33.88
2023-03-06T16:27:02.912Z,22.67
2023-03-06T16:32:05.489Z,23.00
2023-03-06T16:37:11.334Z,14.52
2023-03-06T16:42:13.182Z,17.48
2023-03-06T16:47:15.283Z,19.38
2023-03-06T16:52:17.804Z,15.27
2023-03-06T16:57:19.650Z,19.27
2023-03-06T17:02:21.443Z,14.95
2023-03-06T17:07:24.882Z,15.90
2023-03-06T17:12:26.624Z,17.08
2023-03-06T17:17:28.648Z,14.60
2023-03-06T17:22:33.742Z,26.60
2023-03-06T17:27:36.635Z,17.05
2023-03-06T17:32:41.278Z,20.20
2023-03-06T17:37:45.290Z,20.08
2023-03-06T17:42:47.381Z,23.58
2023-03-06T17:47:53.261Z,17.88
2023-03-06T17:52:55.338Z,20.77
2023-03-06T17:57:57.434Z,19.60
2023-03-06T18:02:59.817Z,19.25
2023-03-06T18:08:01.633Z,24.38
2023-03-06T18:13:03.441Z,17.17
2023-03-06T18:18:05.312Z,23.88
2023-03-06T18:23:07.393Z,22.23
2023-03-06T18:28:09.905Z,19.73
2023-03-06T18:33:11.616Z,18.05
2023-03-06T18:38:13.717Z,18.77
2023-03-06T18:43:15.580Z,21.98
2023-03-06T18:48:17.275Z,20.95
2023-03-06T18:53:20.216Z,16.83
2023-03-06T18:58:22.452Z,20.20
2023-03-06T19:03:24.562Z,19.65
2023-03-06T19:08:26.422Z,17.40
2023-03-06T19:13:28.190Z,20.60
2023-03-06T19:18:30.521Z,25.63
2023-03-06T19:23:32.491Z,20.02
2023-03-06T19:28:36.516Z,15.60
2023-03-06T19:33:38.697Z,15.77
2023-03-06T19:38:41.161Z,21.13
2023-03-06T19:43:43.892Z,19.85
2023-03-06T19:48:46.411Z,17.13
2023-03-06T19:53:48.490Z,19.85
2023-03-06T19:58:51.151Z,17.02
2023-03-06T20:04:00.993Z,21.05
2023-03-06T20:09:05.816Z,16.17
2023-03-06T20:14:09.572Z,19.40
2023-03-06T20:19:12.133Z,15.98
2023-03-06T20:24:16.983Z,16.30
2023-03-06T20:29:19.262Z,16.85
2023-03-06T20:34:21.485Z,18.15
2023-03-06T20:39:23.266Z,17.52
2023-03-06T20:44:25.080Z,17.63
2023-03-06T20:49:27.432Z,25.63
2023-03-06T20:54:29.248Z,18.48
2023-03-06T20:59:31.509Z,18.05
2023-03-06T21:04:33.314Z,20.00
2023-03-06T21:09:37.983Z,21.05
2023-03-06T21:14:40.044Z,20.17
2023-03-06T21:19:41.842Z,17.45
2023-03-06T21:24:44.136Z,17.33
2023-03-06T21:29:46.507Z,21.00
2023-03-06T21:34:48.869Z,19.98
2023-03-06T21:39:50.831Z,17.67
2023-03-06T21:44:53.438Z,18.48
2023-03-06T21:49:55.159Z,17.27
2023-03-06T21:54:57.153Z,20.35
2023-03-06T21:59:59.640Z,15.82
2023-03-06T22:05:01.397Z,17.83
2023-03-06T22:10:04.767Z,19.02
2023-03-06T22:15:07.338Z,16.85
2023-03-06T22:20:10.290Z,17.40
2023-03-06T22:25:12.330Z,16.92
2023-03-06T22:30:14.327Z,20.33
2023-03-06T22:35:16.137Z,24.15
2023-03-06T22:40:18.008Z,26.60
2023-03-06T22:45:20.035Z,19.17
2023-03-06T22:50:21.864Z,17.25
2023-03-06T22:55:23.905Z,16.48
2023-03-06T23:00:25.645Z,16.75
2023-03-06T23:05:29.523Z,14.18
2023-03-06T23:10:31.328Z,14.38
2023-03-06T23:15:35.847Z,15.18
2023-03-06T23:20:42.765Z,12.90
2023-03-06T23:25:44.786Z,16.45
2023-03-06T23:30:46.836Z,16.45
2023-03-06T23:35:48.656Z,14.15
2023-03-06T23:40:50.868Z,14.13
2023-03-06T23:45:56.031Z,16.30
2023-03-06T23:50:58.538Z,13.02
2023-03-06T23:56:00.498Z,15.60
